1PS4 weather

Sankey Airport
Osceola Mills, Pennsylvania, United States

Public forecast

Using degrees Fahrenheit for public forecast. Weather courtesy of forecast.io.

METAR (pilot weather report)

Closest report is Clearfield Lawrence Airport, 13.3 nm (24.6 km) NNW. Retrieved 2019/05/25 20:28 UTC (0 seconds ago):

KFIG 252028Z AUTO VRB05KT 10SM BKN044 BKN055 OVC080 22/19 A3002 RMK AO2 LTG DSNT N AND NE RAE09 TSE06 P0000 T02220194

TAF (pilot weather forecast)

Closest forecast is University Park Airport, 18.6 nm (34.5 km) E. Retrieved 2019/05/25 18:30 UTC (2 hours ago):

TAF KUNV 251728Z 2518/2618 19009G15KT P6SM SCT050 FM252000 22008G18KT P6SM -SHRA VCTS SCT040CB BKN250 FM252300 24010G17KT P6SM BKN040 FM260100 20008G18KT 6SM -SHRA VCTS BKN040CB TEMPO 2601/2603 27015G25KT 2SM -TSRA OVC030CB FM260500 24007KT 5SM BR BKN090 FM261200 27010KT P6SM SCT050 FM261700 28010G18KT P6SM VCSH BKN050